createdAt,value
2023-03-22T00:02:28.100Z,14.62
2023-03-22T00:07:29.733Z,14.60
2023-03-22T00:12:31.571Z,14.61
2023-03-22T00:17:36.618Z,14.64
2023-03-22T00:22:42.902Z,14.66
2023-03-22T00:27:46.956Z,14.68
2023-03-22T00:32:48.607Z,14.71
2023-03-22T00:37:52.627Z,14.70
2023-03-22T00:42:57.589Z,14.69
2023-03-22T00:48:02.148Z,14.67
2023-03-22T00:53:14.098Z,14.66
2023-03-22T00:58:25.416Z,14.68
2023-03-22T01:03:31.469Z,14.67
2023-03-22T01:08:35.501Z,14.67
2023-03-22T01:13:37.774Z,14.65
2023-03-22T01:18:39.655Z,14.62
2023-03-22T01:23:43.729Z,14.60
2023-03-22T01:28:47.534Z,14.56
2023-03-22T01:33:49.179Z,14.50
2023-03-22T01:38:51.001Z,14.45
2023-03-22T01:44:12.527Z,14.37
2023-03-22T01:49:25.923Z,14.29
2023-03-22T01:54:39.169Z,14.24
2023-03-22T01:59:53.825Z,14.21
2023-03-22T02:05:15.447Z,14.18
2023-03-22T02:10:27.050Z,14.14
2023-03-22T02:15:42.981Z,14.12
2023-03-22T02:21:28.303Z,14.11
2023-03-22T02:26:39.310Z,14.08
2023-03-22T02:32:22.206Z,14.07
2023-03-22T02:37:45.977Z,14.05
2023-03-22T02:43:01.071Z,13.99
2023-03-22T02:48:14.257Z,13.94
2023-03-22T02:53:29.751Z,13.91
2023-03-22T02:58:46.812Z,13.89
2023-03-22T03:03:52.904Z,13.87
2023-03-22T03:08:57.956Z,13.85
2023-03-22T03:14:00.868Z,13.82
2023-03-22T03:19:23.384Z,13.77
2023-03-22T03:24:47.965Z,13.74
2023-03-22T03:29:59.025Z,13.70
2023-03-22T03:35:22.523Z,13.64
2023-03-22T03:40:33.409Z,13.57
2023-03-22T03:45:39.653Z,13.52
2023-03-22T03:50:42.176Z,13.47
2023-03-22T03:55:46.208Z,13.37
2023-03-22T04:00:49.045Z,13.32
2023-03-22T04:06:13.698Z,13.24
2023-03-22T04:11:23.882Z,13.21
2023-03-22T04:16:28.902Z,13.15
2023-03-22T04:21:33.082Z,13.12
2023-03-22T04:26:36.465Z,13.06
2023-03-22T04:31:47.836Z,12.99
2023-03-22T04:37:08.179Z,12.94
2023-03-22T04:42:21.632Z,12.89
2023-03-22T04:47:33.530Z,12.85
2023-03-22T04:52:42.501Z,12.80
2023-03-22T04:57:48.732Z,12.74
2023-03-22T05:02:51.425Z,12.68
2023-03-22T05:08:14.337Z,12.62
2023-03-22T05:13:20.409Z,12.57
2023-03-22T05:18:26.223Z,12.54
2023-03-22T05:23:32.208Z,12.50
2023-03-22T05:28:35.792Z,12.46
2023-03-22T05:33:46.612Z,12.43
2023-03-22T05:38:51.761Z,12.42
2023-03-22T05:43:57.211Z,12.41
2023-03-22T05:48:59.226Z,12.43
2023-03-22T05:54:00.928Z,12.44
2023-03-22T05:59:12.815Z,12.46
2023-03-22T06:04:15.485Z,12.50
2023-03-22T06:09:26.270Z,12.55
2023-03-22T06:14:28.383Z,12.58
2023-03-22T06:19:42.552Z,12.61
2023-03-22T06:24:45.978Z,12.64
2023-03-22T06:29:55.882Z,12.67
2023-03-22T06:35:00.353Z,12.69
2023-03-22T06:40:04.748Z,12.72
2023-03-22T06:45:09.400Z,12.72
2023-03-22T06:50:16.051Z,12.78
2023-03-22T06:55:46.016Z,12.83
2023-03-22T07:00:57.291Z,12.88
2023-03-22T07:06:07.542Z,12.95
2023-03-22T07:11:13.289Z,13.00
2023-03-22T07:16:19.873Z,13.05
2023-03-22T07:21:26.421Z,13.11
2023-03-22T07:26:33.654Z,13.17
2023-03-22T07:31:37.762Z,13.25
2023-03-22T07:36:44.526Z,13.37
2023-03-22T07:41:49.481Z,13.47
2023-03-22T07:46:52.410Z,13.59
2023-03-22T07:52:07.760Z,13.72
2023-03-22T07:57:09.833Z,13.84
2023-03-22T08:02:19.628Z,13.97
2023-03-22T08:07:27.800Z,14.12
2023-03-22T08:12:32.637Z,14.25
2023-03-22T08:17:49.128Z,14.39
2023-03-22T08:22:59.057Z,14.49
2023-03-22T08:28:35.826Z,14.56
2023-03-22T08:33:42.173Z,14.69
2023-03-22T08:38:46.407Z,14.80
2023-03-22T08:44:03.246Z,14.92
2023-03-22T08:49:05.758Z,15.00
2023-03-22T08:54:15.572Z,15.10
2023-03-22T08:59:46.286Z,15.22
2023-03-22T09:05:02.448Z,15.33
2023-03-22T09:10:05.457Z,15.41
2023-03-22T09:15:10.673Z,15.48
2023-03-22T09:20:15.677Z,15.61
2023-03-22T09:25:21.725Z,15.73
2023-03-22T09:30:24.513Z,15.81
2023-03-22T09:35:28.580Z,15.89
2023-03-22T09:40:39.318Z,15.94
2023-03-22T09:45:48.213Z,16.04
2023-03-22T09:50:55.237Z,16.17
2023-03-22T09:55:59.615Z,16.29
2023-03-22T10:01:40.579Z,16.23
2023-03-22T10:06:49.387Z,16.31
2023-03-22T10:12:22.567Z,16.40
2023-03-22T10:17:28.033Z,16.48
2023-03-22T10:22:36.451Z,16.61
2023-03-22T10:27:40.275Z,16.75
2023-03-22T10:33:16.566Z,16.82
2023-03-22T10:38:29.517Z,16.92
2023-03-22T10:43:42.785Z,17.01
2023-03-22T10:48:50.828Z,17.09
2023-03-22T10:53:55.018Z,17.20
2023-03-22T10:58:59.229Z,17.25
2023-03-22T11:04:08.933Z,17.33
2023-03-22T11:09:22.283Z,17.48
2023-03-22T11:14:32.289Z,17.60
2023-03-22T11:19:39.541Z,17.73
2023-03-22T11:24:41.425Z,17.76
2023-03-22T11:29:46.382Z,17.83
2023-03-22T11:34:59.760Z,17.92
2023-03-22T11:40:04.510Z,18.00
2023-03-22T11:45:12.937Z,18.11
2023-03-22T11:50:25.762Z,18.24
2023-03-22T11:55:31.703Z,18.34
2023-03-22T12:00:40.757Z,18.36
2023-03-22T12:05:44.760Z,18.50
2023-03-22T12:10:52.505Z,18.66
2023-03-22T12:16:01.141Z,18.82
2023-03-22T12:21:02.838Z,18.83
2023-03-22T12:26:07.741Z,18.94
2023-03-22T12:31:29.652Z,19.01
2023-03-22T12:36:48.243Z,19.02
2023-03-22T12:41:55.891Z,19.05
2023-03-22T12:47:01.501Z,19.03
2023-03-22T12:52:37.669Z,18.94
2023-03-22T12:57:51.351Z,19.02
2023-03-22T13:03:03.882Z,19.10
2023-03-22T13:08:06.374Z,19.23
2023-03-22T13:13:24.003Z,19.34
2023-03-22T13:18:39.446Z,19.40
2023-03-22T13:24:10.203Z,19.47
2023-03-22T13:29:33.940Z,19.59
2023-03-22T13:34:45.611Z,19.66
2023-03-22T13:39:51.947Z,19.72
2023-03-22T13:45:03.405Z,19.72
2023-03-22T13:50:37.512Z,19.60
2023-03-22T13:55:41.232Z,19.64
2023-03-22T14:00:49.361Z,19.56
2023-03-22T14:06:02.541Z,19.68
2023-03-22T14:11:36.143Z,19.75
2023-03-22T14:16:43.487Z,19.62
